Niagara District Airport
CYSN : now visible

Airfield :











YOU CAN JOIN US ON...

 
LOGIN :

Register | Disclaimer

   EN    FR    IT 

 









Legend :    VFR   Marginal VFR   IFR   Intensive IFR   Very Intensive IFR
Visi :
Ceiling :
>= 8 km
>= 3000ft
5 to 8 km
1000 to 3000 ft
1500m to 5 km
500 to 1000 ft
800 to 1500m
200 to 500 ft
< 800m
< 200 ft
Symbols :   Thunderstorms  Fog  Heavy snow  Heavy precipitations  Wind > 20 kt






- Airport Elevation : 321 ft
- IATA code : YCM


CYSN - Niagara District

CURRENT METAR :
  • 041400Z 31004KT 270V330 15SM SCT210 BKN250 13/08 A3022 RMK CC3CI3 SLP236

EXPIRED METARs :
  • 041300Z 22003KT 15SM BKN250 10/08 A3022 RMK CI7 SLP238
  • 041200Z 24005KT 15SM BKN250 06/04 A3022 RMK CI7 SLP239

TAF TAF CYSN
Valid from the 04 at 13:00 until the 05 at 01:00 UTC


041240Z 0413/0501 VRB03KT P6SM SCT240 RMK NXT FCST BY 042000Z
CZYZ FIR / North America



MET'MAP, your aeronautical weather chart ! - Copyright ORBIFLY December 2007 - Disclaimer

ORBIFLY MET'MAP TEAM :

Programming & Development : Alexandra Zaïnal
Original concept : Baudouin d'Aumeries
Technical & hardware support : Manuel Goepfert
Assistance : Marc-Olivier Méhu




SOURCES & CREDITS :

   NOAA       Earth
Advisory